sensor_id;sensor_type;location;lat;lon;timestamp;pressure;altitude;pressure_sealevel;temperature;humidity
63927;BME280;50103;47.960;21.712;2023-01-28T06:02:42;100467.17;;;0.93;100.00
63927;BME280;50103;47.960;21.712;2023-01-28T06:05:08;100469.77;;;0.93;100.00
63927;BME280;50103;47.960;21.712;2023-01-28T06:07:35;100474.59;;;0.95;100.00
63927;BME280;50103;47.960;21.712;2023-01-28T06:10:01;100477.23;;;0.94;100.00
63927;BME280;50103;47.960;21.712;2023-01-28T06:12:27;100478.98;;;0.94;100.00
63927;BME280;50103;47.960;21.712;2023-01-28T06:14:52;100480.17;;;0.95;100.00
63927;BME280;50103;47.960;21.712;2023-01-28T06:17:19;100485.60;;;0.94;100.00
63927;BME280;50103;47.960;21.712;2023-01-28T06:19:45;100483.71;;;0.93;100.00
63927;BME280;50103;47.960;21.712;2023-01-28T06:22:11;100484.92;;;0.93;100.00
63927;BME280;50103;47.960;21.712;2023-01-28T06:24:37;100486.85;;;0.93;100.00
63927;BME280;50103;47.960;21.712;2023-01-28T06:27:03;100488.41;;;0.94;100.00
63927;BME280;50103;47.960;21.712;2023-01-28T06:29:29;100497.63;;;0.94;100.00
63927;BME280;50103;47.960;21.712;2023-01-28T06:31:55;100497.05;;;0.96;100.00
63927;BME280;50103;47.960;21.712;2023-01-28T06:34:21;100498.38;;;0.97;100.00
63927;BME280;50103;47.960;21.712;2023-01-28T06:36:50;100498.82;;;0.99;100.00
63927;BME280;50103;47.960;21.712;2023-01-28T06:39:20;100501.06;;;1.00;100.00
63927;BME280;50103;47.960;21.712;2023-01-28T06:41:49;100499.96;;;1.02;100.00
63927;BME280;50103;47.960;21.712;2023-01-28T06:44:15;100497.71;;;1.01;100.00
63927;BME280;50103;47.960;21.712;2023-01-28T06:46:41;100506.48;;;1.05;100.00
63927;BME280;50103;47.960;21.712;2023-01-28T06:49:07;100506.07;;;1.07;100.00
63927;BME280;50103;47.960;21.712;2023-01-28T06:51:39;100502.98;;;1.06;100.00
63927;BME280;50103;47.960;21.712;2023-01-28T06:54:05;100508.80;;;1.09;100.00
63927;BME280;50103;47.960;21.712;2023-01-28T06:56:32;100513.78;;;1.11;100.00
63927;BME280;50103;47.960;21.712;2023-01-28T06:59:01;100516.16;;;1.13;100.00
63927;BME280;50103;47.960;21.712;2023-01-28T07:01:27;100517.52;;;1.14;100.00
63927;BME280;50103;47.960;21.712;2023-01-28T07:03:53;100519.87;;;1.16;99.98
63927;BME280;50103;47.960;21.712;2023-01-28T07:06:19;100522.41;;;1.18;100.00
63927;BME280;50103;47.960;21.712;2023-01-28T07:08:46;100526.21;;;1.19;100.00
63927;BME280;50103;47.960;21.712;2023-01-28T07:11:12;100525.46;;;1.20;99.84
63927;BME280;50103;47.960;21.712;2023-01-28T07:13:39;100526.80;;;1.22;99.68
63927;BME280;50103;47.960;21.712;2023-01-28T07:16:08;100526.23;;;1.24;99.60
63927;BME280;50103;47.960;21.712;2023-01-28T07:18:39;100533.16;;;1.25;99.27
63927;BME280;50103;47.960;21.712;2023-01-28T07:21:06;100534.02;;;1.26;98.99
63927;BME280;50103;47.960;21.712;2023-01-28T07:23:33;100538.66;;;1.27;99.07
63927;BME280;50103;47.960;21.712;2023-01-28T07:26:02;100538.25;;;1.29;98.80
63927;BME280;50103;47.960;21.712;2023-01-28T07:28:31;100542.22;;;1.30;98.78
63927;BME280;50103;47.960;21.712;2023-01-28T07:30:57;100544.24;;;1.32;98.65
63927;BME280;50103;47.960;21.712;2023-01-28T07:33:24;100544.04;;;1.32;98.29
63927;BME280;50103;47.960;21.712;2023-01-28T07:35:49;100543.82;;;1.33;97.92
63927;BME280;50103;47.960;21.712;2023-01-28T07:38:15;100544.31;;;1.34;97.67
63927;BME280;50103;47.960;21.712;2023-01-28T07:40:41;100545.50;;;1.36;97.54
63927;BME280;50103;47.960;21.712;2023-01-28T07:43:10;100548.91;;;1.38;97.59
63927;BME280;50103;47.960;21.712;2023-01-28T07:45:36;100543.98;;;1.39;97.38
63927;BME280;50103;47.960;21.712;2023-01-28T07:48:05;100546.19;;;1.41;97.29
63927;BME280;50103;47.960;21.712;2023-01-28T07:50:33;100544.20;;;1.44;96.87
63927;BME280;50103;47.960;21.712;2023-01-28T07:53:08;100548.48;;;1.46;97.24
63927;BME280;50103;47.960;21.712;2023-01-28T07:55:34;100548.88;;;1.49;96.78
63927;BME280;50103;47.960;21.712;2023-01-28T07:58:02;100539.77;;;1.50;96.27
63927;BME280;50103;47.960;21.712;2023-01-28T08:00:31;100547.38;;;1.52;96.71
63927;BME280;50103;47.960;21.712;2023-01-28T08:02:58;100548.80;;;1.56;96.94
63927;BME280;50103;47.960;21.712;2023-01-28T08:05:26;100543.82;;;1.59;96.71
63927;BME280;50103;47.960;21.712;2023-01-28T08:07:54;100547.67;;;1.63;96.61
63927;BME280;50103;47.960;21.712;2023-01-28T08:10:20;100548.94;;;1.66;96.40
63927;BME280;50103;47.960;21.712;2023-01-28T08:12:56;100548.30;;;1.69;96.27
63927;BME280;50103;47.960;21.712;2023-01-28T08:15:23;100548.88;;;1.72;95.81
63927;BME280;50103;47.960;21.712;2023-01-28T08:17:49;100548.25;;;1.75;95.68
63927;BME280;50103;47.960;21.712;2023-01-28T08:20:15;100549.39;;;1.78;95.80
63927;BME280;50103;47.960;21.712;2023-01-28T08:22:41;100555.66;;;1.82;95.53
63927;BME280;50103;47.960;21.712;2023-01-28T08:25:07;100558.16;;;1.86;95.51
63927;BME280;50103;47.960;21.712;2023-01-28T08:27:33;100553.65;;;1.90;95.50
63927;BME280;50103;47.960;21.712;2023-01-28T08:29:58;100555.09;;;1.93;94.94
63927;BME280;50103;47.960;21.712;2023-01-28T08:32:24;100558.48;;;1.96;94.96
63927;BME280;50103;47.960;21.712;2023-01-28T08:34:51;100557.84;;;1.98;94.63
63927;BME280;50103;47.960;21.712;2023-01-28T08:37:17;100557.25;;;2.01;94.55
63927;BME280;50103;47.960;21.712;2023-01-28T08:39:43;100560.63;;;2.03;94.54
63927;BME280;50103;47.960;21.712;2023-01-28T08:42:08;100561.41;;;2.06;94.64
63927;BME280;50103;47.960;21.712;2023-01-28T08:44:34;100566.54;;;2.09;94.86
63927;BME280;50103;47.960;21.712;2023-01-28T08:46:59;100566.73;;;2.13;94.66
63927;BME280;50103;47.960;21.712;2023-01-28T08:49:25;100571.52;;;2.15;94.47
63927;BME280;50103;47.960;21.712;2023-01-28T08:51:51;100576.33;;;2.18;94.28
63927;BME280;50103;47.960;21.712;2023-01-28T08:54:17;100581.11;;;2.21;94.18
63927;BME280;50103;47.960;21.712;2023-01-28T08:56:42;100584.13;;;2.24;94.01
63927;BME280;50103;47.960;21.712;2023-01-28T08:59:10;100586.09;;;2.27;93.75
63927;BME280;50103;47.960;21.712;2023-01-28T09:01:36;100586.29;;;2.31;93.57
63927;BME280;50103;47.960;21.712;2023-01-28T09:04:01;100589.77;;;2.36;93.73
63927;BME280;50103;47.960;21.712;2023-01-28T09:06:27;100589.98;;;2.40;93.65
63927;BME280;50103;47.960;21.712;2023-01-28T09:08:58;100592.77;;;2.44;93.38
63927;BME280;50103;47.960;21.712;2023-01-28T09:11:25;100590.84;;;2.49;93.50
63927;BME280;50103;47.960;21.712;2023-01-28T09:13:50;100590.34;;;2.53;93.13
63927;BME280;50103;47.960;21.712;2023-01-28T09:16:16;100594.05;;;2.57;92.74
63927;BME280;50103;47.960;21.712;2023-01-28T09:18:42;100592.17;;;2.60;92.56
63927;BME280;50103;47.960;21.712;2023-01-28T09:21:08;100597.62;;;2.63;92.73
63927;BME280;50103;47.960;21.712;2023-01-28T09:23:35;100598.69;;;2.67;92.34
63927;BME280;50103;47.960;21.712;2023-01-28T09:26:02;100594.70;;;2.71;92.20
63927;BME280;50103;47.960;21.712;2023-01-28T09:28:28;100589.85;;;2.74;91.71
63927;BME280;50103;47.960;21.712;2023-01-28T09:31:04;100596.95;;;2.75;91.37
63927;BME280;50103;47.960;21.712;2023-01-28T09:33:31;100594.59;;;2.77;91.83
63927;BME280;50103;47.960;21.712;2023-01-28T09:36:02;100593.02;;;2.81;91.51
63927;BME280;50103;47.960;21.712;2023-01-28T09:38:29;100590.05;;;2.86;91.50
63927;BME280;50103;47.960;21.712;2023-01-28T09:40:55;100590.77;;;2.90;91.72
63927;BME280;50103;47.960;21.712;2023-01-28T09:46:29;100588.64;;;2.99;91.82
63927;BME280;50103;47.960;21.712;2023-01-28T09:48:57;100589.63;;;3.05;91.38
63927;BME280;50103;47.960;21.712;2023-01-28T09:51:33;100584.99;;;3.10;90.96
63927;BME280;50103;47.960;21.712;2023-01-28T09:54:10;100585.41;;;3.13;90.53
63927;BME280;50103;47.960;21.712;2023-01-28T09:56:41;100585.83;;;3.16;90.25
63927;BME280;50103;47.960;21.712;2023-01-28T09:59:21;100579.05;;;3.19;90.12
63927;BME280;50103;47.960;21.712;2023-01-28T10:01:56;100583.19;;;3.21;89.92
63927;BME280;50103;47.960;21.712;2023-01-28T10:10:55;100582.38;;;3.35;89.39
63927;BME280;50103;47.960;21.712;2023-01-28T10:13:51;100584.48;;;3.39;88.74
63927;BME280;50103;47.960;21.712;2023-01-28T10:16:30;100581.16;;;3.43;88.56
63927;BME280;50103;47.960;21.712;2023-01-28T10:21:49;100584.30;;;3.51;88.28
63927;BME280;50103;47.960;21.712;2023-01-28T10:26:52;100585.21;;;3.63;88.23
63927;BME280;50103;47.960;21.712;2023-01-28T10:29:20;100582.69;;;3.68;88.17
63927;BME280;50103;47.960;21.712;2023-01-28T10:32:03;100582.02;;;3.75;88.31
63927;BME280;50103;47.960;21.712;2023-01-28T10:34:30;100582.08;;;3.82;87.79
63927;BME280;50103;47.960;21.712;2023-01-28T10:36:56;100580.72;;;3.88;87.83
63927;BME280;50103;47.960;21.712;2023-01-28T10:39:24;100581.52;;;3.94;86.66
63927;BME280;50103;47.960;21.712;2023-01-28T10:41:51;100580.37;;;3.96;86.55
63927;BME280;50103;47.960;21.712;2023-01-28T10:44:25;100576.47;;;3.97;86.49
63927;BME280;50103;47.960;21.712;2023-01-28T10:46:56;100577.86;;;4.01;86.66
63927;BME280;50103;47.960;21.712;2023-01-28T10:49:28;100583.08;;;4.06;86.58
63927;BME280;50103;47.960;21.712;2023-01-28T10:51:55;100579.11;;;4.08;85.69
63927;BME280;50103;47.960;21.712;2023-01-28T10:54:26;100578.48;;;4.10;86.20
63927;BME280;50103;47.960;21.712;2023-01-28T10:57:13;100575.47;;;4.15;86.20
63927;BME280;50103;47.960;21.712;2023-01-28T10:59:41;100575.54;;;4.21;86.09
63927;BME280;50103;47.960;21.712;2023-01-28T11:02:28;100575.06;;;4.27;86.45
63927;BME280;50103;47.960;21.712;2023-01-28T11:05:13;100573.69;;;4.31;84.96
63927;BME280;50103;47.960;21.712;2023-01-28T11:07:41;100577.02;;;4.30;84.76
63927;BME280;50103;47.960;21.712;2023-01-28T11:10:31;100573.80;;;4.32;84.87
63927;BME280;50103;47.960;21.712;2023-01-28T11:13:00;100574.84;;;4.32;83.70
63927;BME280;50103;47.960;21.712;2023-01-28T11:15:27;100576.67;;;4.31;84.39
63927;BME280;50103;47.960;21.712;2023-01-28T11:18:02;100575.66;;;4.30;83.77
63927;BME280;50103;47.960;21.712;2023-01-28T11:20:36;100575.95;;;4.31;84.84
63927;BME280;50103;47.960;21.712;2023-01-28T11:23:02;100577.01;;;4.35;83.74
63927;BME280;50103;47.960;21.712;2023-01-28T11:25:33;100574.86;;;4.32;83.43
63927;BME280;50103;47.960;21.712;2023-01-28T11:28:02;100573.16;;;4.30;83.54
63927;BME280;50103;47.960;21.712;2023-01-28T11:30:37;100571.84;;;4.33;83.84
63927;BME280;50103;47.960;21.712;2023-01-28T11:33:20;100570.23;;;4.33;83.18
63927;BME280;50103;47.960;21.712;2023-01-28T11:35:57;100567.64;;;4.36;84.16
63927;BME280;50103;47.960;21.712;2023-01-28T11:38:28;100565.09;;;4.42;83.52
63927;BME280;50103;47.960;21.712;2023-01-28T11:40:56;100566.98;;;4.42;83.08
63927;BME280;50103;47.960;21.712;2023-01-28T11:43:28;100565.22;;;4.43;82.63
63927;BME280;50103;47.960;21.712;2023-01-28T11:49:01;100563.31;;;4.42;83.32
63927;BME280;50103;47.960;21.712;2023-01-28T11:51:47;100563.73;;;4.45;83.26
63927;BME280;50103;47.960;21.712;2023-01-28T11:54:33;100565.36;;;4.47;83.05
63927;BME280;50103;47.960;21.712;2023-01-28T12:00:30;100569.20;;;4.54;83.52
63927;BME280;50103;47.960;21.712;2023-01-28T12:05:51;100570.79;;;4.62;83.21
63927;BME280;50103;47.960;21.712;2023-01-28T12:08:25;100566.79;;;4.65;83.87
63927;BME280;50103;47.960;21.712;2023-01-28T12:11:21;100567.77;;;4.70;82.50
63927;BME280;50103;47.960;21.712;2023-01-28T12:14:29;100567.34;;;4.64;82.16
63927;BME280;50103;47.960;21.712;2023-01-28T12:20:27;100576.95;;;4.61;81.90
63927;BME280;50103;47.960;21.712;2023-01-28T12:23:34;100576.76;;;4.55;81.13
63927;BME280;50103;47.960;21.712;2023-01-28T12:26:08;100579.24;;;4.46;81.27
63927;BME280;50103;47.960;21.712;2023-01-28T12:31:54;100579.92;;;4.43;82.16
63927;BME280;50103;47.960;21.712;2023-01-28T12:35:21;100580.96;;;4.43;82.17
63927;BME280;50103;47.960;21.712;2023-01-28T12:40:35;100584.52;;;4.39;82.22
63927;BME280;50103;47.960;21.712;2023-01-28T12:43:38;100584.48;;;4.36;82.60
63927;BME280;50103;47.960;21.712;2023-01-28T12:49:04;100587.81;;;4.36;82.00
63927;BME280;50103;47.960;21.712;2023-01-28T12:51:41;100589.70;;;4.33;82.15
63927;BME280;50103;47.960;21.712;2023-01-28T12:54:18;100588.83;;;4.29;82.14
63927;BME280;50103;47.960;21.712;2023-01-28T12:56:53;100592.08;;;4.27;82.63
63927;BME280;50103;47.960;21.712;2023-01-28T12:59:41;100591.83;;;4.29;82.29
63927;BME280;50103;47.960;21.712;2023-01-28T13:04:47;100598.94;;;4.22;82.17
63927;BME280;50103;47.960;21.712;2023-01-28T13:07:23;100601.68;;;4.20;82.79
63927;BME280;50103;47.960;21.712;2023-01-28T13:09:57;100601.10;;;4.22;82.35
63927;BME280;50103;47.960;21.712;2023-01-28T13:12:25;100597.64;;;4.21;82.16
63927;BME280;50103;47.960;21.712;2023-01-28T13:14:51;100600.05;;;4.21;82.20
63927;BME280;50103;47.960;21.712;2023-01-28T13:17:29;100600.38;;;4.22;82.39
63927;BME280;50103;47.960;21.712;2023-01-28T13:19:56;100604.02;;;4.22;82.37
63927;BME280;50103;47.960;21.712;2023-01-28T13:22:31;100602.58;;;4.23;81.82
63927;BME280;50103;47.960;21.712;2023-01-28T13:25:21;100605.31;;;4.18;81.46
63927;BME280;50103;47.960;21.712;2023-01-28T13:27:59;100609.42;;;4.12;81.22
63927;BME280;50103;47.960;21.712;2023-01-28T13:30:31;100610.08;;;4.09;81.72
63927;BME280;50103;47.960;21.712;2023-01-28T13:33:05;100614.29;;;4.09;82.24
63927;BME280;50103;47.960;21.712;2023-01-28T13:35:37;100617.56;;;4.10;82.37
63927;BME280;50103;47.960;21.712;2023-01-28T13:38:17;100623.65;;;4.11;82.61
63927;BME280;50103;47.960;21.712;2023-01-28T13:40:53;100622.71;;;4.13;82.33
63927;BME280;50103;47.960;21.712;2023-01-28T13:43:38;100624.30;;;4.12;82.11
63927;BME280;50103;47.960;21.712;2023-01-28T13:46:14;100623.98;;;4.11;82.08
63927;BME280;50103;47.960;21.712;2023-01-28T13:48:56;100624.27;;;4.09;81.90
63927;BME280;50103;47.960;21.712;2023-01-28T13:51:37;100626.41;;;4.08;81.78
63927;BME280;50103;47.960;21.712;2023-01-28T13:54:17;100629.91;;;4.08;81.94
63927;BME280;50103;47.960;21.712;2023-01-28T14:08:26;100636.13;;;3.99;81.52
63927;BME280;50103;47.960;21.712;2023-01-28T14:16:59;100638.33;;;3.93;81.18
63927;BME280;50103;47.960;21.712;2023-01-28T14:19:41;100636.74;;;3.93;81.43
63927;BME280;50103;47.960;21.712;2023-01-28T14:22:08;100638.75;;;3.91;82.29
63927;BME280;50103;47.960;21.712;2023-01-28T14:24:36;100639.98;;;3.91;82.01
63927;BME280;50103;47.960;21.712;2023-01-28T14:27:10;100646.02;;;3.90;82.01
63927;BME280;50103;47.960;21.712;2023-01-28T14:32:33;100646.83;;;3.82;81.66
63927;BME280;50103;47.960;21.712;2023-01-28T14:35:08;100651.89;;;3.79;81.65
63927;BME280;50103;47.960;21.712;2023-01-28T14:37:34;100657.23;;;3.77;81.86
63927;BME280;50103;47.960;21.712;2023-01-28T14:40:06;100663.36;;;3.73;80.98
63927;BME280;50103;47.960;21.712;2023-01-28T14:42:38;100662.59;;;3.67;81.13
63927;BME280;50103;47.960;21.712;2023-01-28T14:54:05;100673.23;;;3.51;81.50
63927;BME280;50103;47.960;21.712;2023-01-28T15:00:01;100680.33;;;3.41;80.65
63927;BME280;50103;47.960;21.712;2023-01-28T15:02:28;100685.05;;;3.37;80.79
63927;BME280;50103;47.960;21.712;2023-01-28T15:05:06;100686.90;;;3.34;80.82
63927;BME280;50103;47.960;21.712;2023-01-28T15:07:32;100694.02;;;3.31;81.07
63927;BME280;50103;47.960;21.712;2023-01-28T15:10:03;100692.49;;;3.30;81.24
63927;BME280;50103;47.960;21.712;2023-01-28T15:12:34;100691.90;;;3.27;81.20
63927;BME280;50103;47.960;21.712;2023-01-28T15:15:15;100702.59;;;3.23;81.40
63927;BME280;50103;47.960;21.712;2023-01-28T15:17:42;100705.11;;;3.21;81.61
63927;BME280;50103;47.960;21.712;2023-01-28T15:20:14;100708.84;;;3.20;81.46
63927;BME280;50103;47.960;21.712;2023-01-28T15:22:41;100710.15;;;3.18;81.58
63927;BME280;50103;47.960;21.712;2023-01-28T15:25:18;100711.61;;;3.16;81.48
63927;BME280;50103;47.960;21.712;2023-01-28T15:27:45;100711.95;;;3.12;81.34
63927;BME280;50103;47.960;21.712;2023-01-28T15:30:28;100718.58;;;3.08;81.42
63927;BME280;50103;47.960;21.712;2023-01-28T15:35:24;100724.31;;;3.05;81.93
63927;BME280;50103;47.960;21.712;2023-01-28T15:37:50;100720.56;;;3.02;81.57
63927;BME280;50103;47.960;21.712;2023-01-28T15:40:18;100729.24;;;3.00;81.66
63927;BME280;50103;47.960;21.712;2023-01-28T15:42:47;100729.30;;;2.98;81.52
63927;BME280;50103;47.960;21.712;2023-01-28T15:45:18;100736.13;;;2.93;81.60
63927;BME280;50103;47.960;21.712;2023-01-28T15:47:45;100735.73;;;2.90;81.64
63927;BME280;50103;47.960;21.712;2023-01-28T15:50:23;100736.58;;;2.87;82.02
63927;BME280;50103;47.960;21.712;2023-01-28T15:52:51;100744.48;;;2.86;81.93
63927;BME280;50103;47.960;21.712;2023-01-28T15:55:43;100744.61;;;2.82;81.92
63927;BME280;50103;47.960;21.712;2023-01-28T15:58:25;100750.85;;;2.79;82.13
63927;BME280;50103;47.960;21.712;2023-01-28T16:01:01;100758.24;;;2.77;82.28
63927;BME280;50103;47.960;21.712;2023-01-28T16:03:27;100759.24;;;2.75;82.33
63927;BME280;50103;47.960;21.712;2023-01-28T16:05:59;100759.37;;;2.71;81.97
63927;BME280;50103;47.960;21.712;2023-01-28T16:08:39;100760.15;;;2.69;82.26
63927;BME280;50103;47.960;21.712;2023-01-28T16:11:08;100761.41;;;2.68;82.37
63927;BME280;50103;47.960;21.712;2023-01-28T16:13:34;100766.06;;;2.65;82.30
63927;BME280;50103;47.960;21.712;2023-01-28T16:16:02;100772.51;;;2.61;82.04
63927;BME280;50103;47.960;21.712;2023-01-28T16:18:46;100769.74;;;2.56;82.13
63927;BME280;50103;47.960;21.712;2023-01-28T16:21:43;100772.83;;;2.52;82.57
63927;BME280;50103;47.960;21.712;2023-01-28T16:24:24;100779.89;;;2.50;82.30
63927;BME280;50103;47.960;21.712;2023-01-28T16:26:59;100773.79;;;2.45;82.32
63927;BME280;50103;47.960;21.712;2023-01-28T16:29:26;100776.39;;;2.41;82.35
63927;BME280;50103;47.960;21.712;2023-01-28T16:31:53;100777.13;;;2.40;82.64
63927;BME280;50103;47.960;21.712;2023-01-28T16:34:19;100777.02;;;2.38;82.65
63927;BME280;50103;47.960;21.712;2023-01-28T16:36:45;100779.54;;;2.36;82.64
63927;BME280;50103;47.960;21.712;2023-01-28T16:39:10;100783.67;;;2.33;82.55
63927;BME280;50103;47.960;21.712;2023-01-28T16:41:44;100784.38;;;2.28;82.40
63927;BME280;50103;47.960;21.712;2023-01-28T16:44:14;100782.80;;;2.23;82.63
63927;BME280;50103;47.960;21.712;2023-01-28T16:46:47;100784.80;;;2.21;82.55
63927;BME280;50103;47.960;21.712;2023-01-28T16:49:13;100782.47;;;2.17;82.86
63927;BME280;50103;47.960;21.712;2023-01-28T16:51:40;100784.13;;;2.15;82.91
63927;BME280;50103;47.960;21.712;2023-01-28T16:54:14;100788.39;;;2.13;83.02
63927;BME280;50103;47.960;21.712;2023-01-28T16:56:41;100790.09;;;2.09;83.14
63927;BME280;50103;47.960;21.712;2023-01-28T16:59:10;100796.13;;;2.07;82.90
63927;BME280;50103;47.960;21.712;2023-01-28T17:01:36;100798.77;;;2.01;82.85
63927;BME280;50103;47.960;21.712;2023-01-28T17:04:02;100803.29;;;1.96;82.84
63927;BME280;50103;47.960;21.712;2023-01-28T17:06:31;100804.63;;;1.93;83.15
63927;BME280;50103;47.960;21.712;2023-01-28T17:08:57;100800.90;;;1.89;83.15
63927;BME280;50103;47.960;21.712;2023-01-28T17:11:22;100803.96;;;1.86;83.21
63927;BME280;50103;47.960;21.712;2023-01-28T17:13:48;100803.86;;;1.84;83.42
63927;BME280;50103;47.960;21.712;2023-01-28T17:16:13;100814.80;;;1.81;83.49
63927;BME280;50103;47.960;21.712;2023-01-28T17:18:39;100815.29;;;1.77;83.38
63927;BME280;50103;47.960;21.712;2023-01-28T17:21:05;100816.05;;;1.75;83.73
63927;BME280;50103;47.960;21.712;2023-01-28T17:23:32;100819.27;;;1.73;83.75
63927;BME280;50103;47.960;21.712;2023-01-28T17:26:05;100820.39;;;1.70;83.57
63927;BME280;50103;47.960;21.712;2023-01-28T17:28:32;100817.09;;;1.64;83.66
63927;BME280;50103;47.960;21.712;2023-01-28T17:30:58;100825.77;;;1.61;83.79
63927;BME280;50103;47.960;21.712;2023-01-28T17:33:23;100830.27;;;1.56;84.01
63927;BME280;50103;47.960;21.712;2023-01-28T17:35:49;100830.67;;;1.55;84.23
63927;BME280;50103;47.960;21.712;2023-01-28T17:38:15;100834.76;;;1.52;84.21
63927;BME280;50103;47.960;21.712;2023-01-28T17:40:41;100837.51;;;1.48;84.14
63927;BME280;50103;47.960;21.712;2023-01-28T17:43:06;100840.45;;;1.43;84.23
63927;BME280;50103;47.960;21.712;2023-01-28T17:45:32;100839.35;;;1.39;84.28
63927;BME280;50103;47.960;21.712;2023-01-28T17:47:58;100843.75;;;1.38;84.60
63927;BME280;50103;47.960;21.712;2023-01-28T17:50:24;100849.60;;;1.34;84.78
63927;BME280;50103;47.960;21.712;2023-01-28T17:52:55;100850.67;;;1.34;84.84
63927;BME280;50103;47.960;21.712;2023-01-28T17:55:25;100850.82;;;1.29;84.66
63927;BME280;50103;47.960;21.712;2023-01-28T17:57:57;100857.75;;;1.25;84.61
63927;BME280;50103;47.960;21.712;2023-01-28T18:00:23;100860.98;;;1.22;84.89
63927;BME280;50103;47.960;21.712;2023-01-28T18:02:50;100867.33;;;1.20;85.14
63927;BME280;50103;47.960;21.712;2023-01-28T18:05:16;100868.05;;;1.19;85.12
63927;BME280;50103;47.960;21.712;2023-01-28T18:07:42;100876.01;;;1.15;85.07
63927;BME280;50103;47.960;21.712;2023-01-28T18:10:10;100874.77;;;1.10;85.10
63927;BME280;50103;47.960;21.712;2023-01-28T18:12:36;100876.28;;;1.06;85.49
63927;BME280;50103;47.960;21.712;2023-01-28T18:15:01;100876.73;;;1.02;85.72
63927;BME280;50103;47.960;21.712;2023-01-28T18:17:27;100876.16;;;0.98;85.67
63927;BME280;50103;47.960;21.712;2023-01-28T18:19:55;100878.20;;;0.94;85.79
63927;BME280;50103;47.960;21.712;2023-01-28T18:22:22;100879.81;;;0.93;85.89
63927;BME280;50103;47.960;21.712;2023-01-28T18:24:50;100881.98;;;0.90;86.09
63927;BME280;50103;47.960;21.712;2023-01-28T18:27:16;100881.38;;;0.86;86.31
63927;BME280;50103;47.960;21.712;2023-01-28T18:29:41;100884.81;;;0.82;86.34
63927;BME280;50103;47.960;21.712;2023-01-28T18:32:07;100887.88;;;0.79;86.12
63927;BME280;50103;47.960;21.712;2023-01-28T18:34:33;100888.98;;;0.76;86.31
63927;BME280;50103;47.960;21.712;2023-01-28T18:36:59;100882.05;;;0.75;86.39
63927;BME280;50103;47.960;21.712;2023-01-28T18:39:28;100887.30;;;0.74;86.54
63927;BME280;50103;47.960;21.712;2023-01-28T18:41:56;100887.86;;;0.73;86.60
63927;BME280;50103;47.960;21.712;2023-01-28T18:44:23;100888.07;;;0.71;86.40
63927;BME280;50103;47.960;21.712;2023-01-28T18:46:50;100891.25;;;0.69;86.53
63927;BME280;50103;47.960;21.712;2023-01-28T18:49:16;100890.20;;;0.69;86.57
63927;BME280;50103;47.960;21.712;2023-01-28T18:51:42;100890.41;;;0.68;86.63
63927;BME280;50103;47.960;21.712;2023-01-28T18:54:12;100894.02;;;0.64;86.75
63927;BME280;50103;47.960;21.712;2023-01-28T18:56:38;100896.16;;;0.62;86.78
63927;BME280;50103;47.960;21.712;2023-01-28T18:59:05;100901.09;;;0.61;86.71
63927;BME280;50103;47.960;21.712;2023-01-28T19:01:33;100904.80;;;0.58;86.90
63927;BME280;50103;47.960;21.712;2023-01-28T19:03:59;100904.48;;;0.57;86.94
63927;BME280;50103;47.960;21.712;2023-01-28T19:06:27;100906.45;;;0.55;87.06
63927;BME280;50103;47.960;21.712;2023-01-28T19:08:54;100909.11;;;0.54;86.92
63927;BME280;50103;47.960;21.712;2023-01-28T19:11:22;100905.50;;;0.51;87.12
63927;BME280;50103;47.960;21.712;2023-01-28T19:13:49;100906.80;;;0.49;86.96
63927;BME280;50103;47.960;21.712;2023-01-28T19:16:15;100905.29;;;0.47;87.06
63927;BME280;50103;47.960;21.712;2023-01-28T19:18:40;100904.66;;;0.44;87.02
63927;BME280;50103;47.960;21.712;2023-01-28T19:21:06;100902.95;;;0.43;87.14
63927;BME280;50103;47.960;21.712;2023-01-28T19:23:33;100904.56;;;0.41;87.14
63927;BME280;50103;47.960;21.712;2023-01-28T19:26:04;100904.44;;;0.39;87.11
63927;BME280;50103;47.960;21.712;2023-01-28T19:28:34;100906.92;;;0.37;87.15
63927;BME280;50103;47.960;21.712;2023-01-28T19:31:00;100909.91;;;0.36;87.22
63927;BME280;50103;47.960;21.712;2023-01-28T19:33:27;100911.00;;;0.34;87.04
63927;BME280;50103;47.960;21.712;2023-01-28T19:35:56;100912.09;;;0.32;87.11
63927;BME280;50103;47.960;21.712;2023-01-28T19:38:24;100912.67;;;0.30;87.03
63927;BME280;50103;47.960;21.712;2023-01-28T19:40:50;100912.54;;;0.29;87.00
63927;BME280;50103;47.960;21.712;2023-01-28T19:43:15;100916.91;;;0.28;86.88
63927;BME280;50103;47.960;21.712;2023-01-28T19:45:41;100919.55;;;0.27;87.02
63927;BME280;50103;47.960;21.712;2023-01-28T19:48:07;100924.14;;;0.25;87.03
63927;BME280;50103;47.960;21.712;2023-01-28T19:50:35;100924.87;;;0.23;86.91
63927;BME280;50103;47.960;21.712;2023-01-28T19:53:01;100928.89;;;0.22;86.90
63927;BME280;50103;47.960;21.712;2023-01-28T19:55:27;100933.63;;;0.20;87.00
63927;BME280;50103;47.960;21.712;2023-01-28T19:57:53;100937.14;;;0.20;87.01
63927;BME280;50103;47.960;21.712;2023-01-28T20:00:19;100941.36;;;0.18;86.86
